sensor_id;sensor_type;location;lat;lon;timestamp;P1;durP1;ratioP1;P2;durP2;ratioP2
77085;SDS011;66014;53.134;18.006;2023-03-01T00:01:18;80.60;;;29.40;;
77085;SDS011;66014;53.134;18.006;2023-03-01T00:03:47;83.40;;;31.20;;
77085;SDS011;66014;53.134;18.006;2023-03-01T00:06:14;67.70;;;29.50;;
77085;SDS011;66014;53.134;18.006;2023-03-01T00:08:42;64.20;;;25.90;;
77085;SDS011;66014;53.134;18.006;2023-03-01T00:11:12;73.40;;;27.20;;
77085;SDS011;66014;53.134;18.006;2023-03-01T00:13:41;76.30;;;29.00;;
77085;SDS011;66014;53.134;18.006;2023-03-01T00:16:09;82.10;;;28.40;;
77085;SDS011;66014;53.134;18.006;2023-03-01T00:18:39;77.40;;;28.60;;
77085;SDS011;66014;53.134;18.006;2023-03-01T00:21:05;78.60;;;29.60;;
77085;SDS011;66014;53.134;18.006;2023-03-01T00:23:36;56.80;;;20.50;;
77085;SDS011;66014;53.134;18.006;2023-03-01T00:26:07;49.00;;;19.30;;
77085;SDS011;66014;53.134;18.006;2023-03-01T00:28:36;55.20;;;21.40;;
77085;SDS011;66014;53.134;18.006;2023-03-01T00:31:03;52.10;;;18.60;;
77085;SDS011;66014;53.134;18.006;2023-03-01T00:33:31;41.90;;;19.00;;
77085;SDS011;66014;53.134;18.006;2023-03-01T00:35:58;46.20;;;18.00;;
77085;SDS011;66014;53.134;18.006;2023-03-01T00:38:28;48.70;;;19.10;;
77085;SDS011;66014;53.134;18.006;2023-03-01T00:41:03;64.30;;;23.10;;
77085;SDS011;66014;53.134;18.006;2023-03-01T00:43:32;53.80;;;21.10;;
77085;SDS011;66014;53.134;18.006;2023-03-01T00:46:08;50.50;;;20.60;;
77085;SDS011;66014;53.134;18.006;2023-03-01T00:48:41;48.70;;;20.50;;
77085;SDS011;66014;53.134;18.006;2023-03-01T00:51:13;62.30;;;23.60;;
77085;SDS011;66014;53.134;18.006;2023-03-01T00:53:44;56.60;;;22.50;;
77085;SDS011;66014;53.134;18.006;2023-03-01T00:56:11;52.90;;;22.10;;
77085;SDS011;66014;53.134;18.006;2023-03-01T00:58:41;42.40;;;17.90;;
77085;SDS011;66014;53.134;18.006;2023-03-01T01:01:14;44.30;;;18.80;;
77085;SDS011;66014;53.134;18.006;2023-03-01T01:06:17;38.60;;;16.10;;
77085;SDS011;66014;53.134;18.006;2023-03-01T01:08:46;35.80;;;13.80;;
77085;SDS011;66014;53.134;18.006;2023-03-01T01:11:13;45.70;;;17.70;;
77085;SDS011;66014;53.134;18.006;2023-03-01T01:13:43;51.30;;;18.70;;
77085;SDS011;66014;53.134;18.006;2023-03-01T01:16:11;48.20;;;21.00;;
77085;SDS011;66014;53.134;18.006;2023-03-01T01:18:49;60.00;;;24.70;;
77085;SDS011;66014;53.134;18.006;2023-03-01T01:21:34;40.10;;;16.90;;
77085;SDS011;66014;53.134;18.006;2023-03-01T01:24:02;56.10;;;22.90;;
77085;SDS011;66014;53.134;18.006;2023-03-01T01:26:31;42.40;;;18.40;;
77085;SDS011;66014;53.134;18.006;2023-03-01T01:28:59;55.30;;;22.10;;
77085;SDS011;66014;53.134;18.006;2023-03-01T01:31:27;52.10;;;21.10;;
77085;SDS011;66014;53.134;18.006;2023-03-01T01:33:55;50.90;;;19.40;;
77085;SDS011;66014;53.134;18.006;2023-03-01T01:36:22;36.80;;;14.60;;
77085;SDS011;66014;53.134;18.006;2023-03-01T01:38:49;48.80;;;19.90;;
77085;SDS011;66014;53.134;18.006;2023-03-01T01:41:16;48.90;;;18.30;;
77085;SDS011;66014;53.134;18.006;2023-03-01T01:43:45;43.60;;;18.10;;
77085;SDS011;66014;53.134;18.006;2023-03-01T01:49:05;29.90;;;13.00;;
77085;SDS011;66014;53.134;18.006;2023-03-01T01:51:39;40.60;;;14.50;;
77085;SDS011;66014;53.134;18.006;2023-03-01T01:54:12;46.90;;;18.30;;
77085;SDS011;66014;53.134;18.006;2023-03-01T01:56:59;52.60;;;18.30;;
77085;SDS011;66014;53.134;18.006;2023-03-01T01:59:30;56.30;;;24.30;;
77085;SDS011;66014;53.134;18.006;2023-03-01T02:01:59;71.50;;;26.90;;
77085;SDS011;66014;53.134;18.006;2023-03-01T02:04:29;76.10;;;27.10;;
77085;SDS011;66014;53.134;18.006;2023-03-01T02:07:01;82.60;;;33.20;;
77085;SDS011;66014;53.134;18.006;2023-03-01T02:09:34;90.60;;;34.00;;
77085;SDS011;66014;53.134;18.006;2023-03-01T02:12:04;152.90;;;56.30;;
77085;SDS011;66014;53.134;18.006;2023-03-01T02:14:33;87.30;;;32.10;;
77085;SDS011;66014;53.134;18.006;2023-03-01T02:17:00;92.60;;;34.70;;
77085;SDS011;66014;53.134;18.006;2023-03-01T02:19:30;87.30;;;35.90;;
77085;SDS011;66014;53.134;18.006;2023-03-01T02:22:23;108.60;;;38.40;;
77085;SDS011;66014;53.134;18.006;2023-03-01T02:25:04;78.90;;;29.20;;
77085;SDS011;66014;53.134;18.006;2023-03-01T02:27:49;82.20;;;31.90;;
77085;SDS011;66014;53.134;18.006;2023-03-01T02:30:18;58.30;;;23.30;;
77085;SDS011;66014;53.134;18.006;2023-03-01T02:32:47;48.80;;;20.80;;
77085;SDS011;66014;53.134;18.006;2023-03-01T02:35:16;37.80;;;16.10;;
77085;SDS011;66014;53.134;18.006;2023-03-01T02:37:44;48.80;;;16.10;;
77085;SDS011;66014;53.134;18.006;2023-03-01T02:40:15;42.10;;;17.70;;
77085;SDS011;66014;53.134;18.006;2023-03-01T02:42:51;43.60;;;17.10;;
77085;SDS011;66014;53.134;18.006;2023-03-01T02:45:22;35.10;;;14.00;;
77085;SDS011;66014;53.134;18.006;2023-03-01T02:47:53;41.90;;;15.80;;
77085;SDS011;66014;53.134;18.006;2023-03-01T02:53:05;29.40;;;12.50;;
77085;SDS011;66014;53.134;18.006;2023-03-01T02:55:39;35.10;;;14.80;;
77085;SDS011;66014;53.134;18.006;2023-03-01T02:58:06;28.70;;;11.70;;
77085;SDS011;66014;53.134;18.006;2023-03-01T03:00:37;35.50;;;13.40;;
77085;SDS011;66014;53.134;18.006;2023-03-01T03:03:12;36.50;;;14.60;;
77085;SDS011;66014;53.134;18.006;2023-03-01T03:05:41;31.20;;;11.90;;
77085;SDS011;66014;53.134;18.006;2023-03-01T03:08:08;45.50;;;19.20;;
77085;SDS011;66014;53.134;18.006;2023-03-01T03:10:37;31.60;;;14.10;;
77085;SDS011;66014;53.134;18.006;2023-03-01T03:13:06;44.50;;;18.40;;
77085;SDS011;66014;53.134;18.006;2023-03-01T03:15:35;40.30;;;17.90;;
77085;SDS011;66014;53.134;18.006;2023-03-01T03:18:03;55.20;;;20.40;;
77085;SDS011;66014;53.134;18.006;2023-03-01T03:20:32;52.90;;;21.20;;
77085;SDS011;66014;53.134;18.006;2023-03-01T03:22:59;38.50;;;17.70;;
77085;SDS011;66014;53.134;18.006;2023-03-01T03:25:27;33.60;;;14.90;;
77085;SDS011;66014;53.134;18.006;2023-03-01T03:27:55;33.60;;;15.00;;
77085;SDS011;66014;53.134;18.006;2023-03-01T03:30:25;38.70;;;14.60;;
77085;SDS011;66014;53.134;18.006;2023-03-01T03:32:56;33.20;;;13.70;;
77085;SDS011;66014;53.134;18.006;2023-03-01T03:35:28;35.10;;;14.80;;
77085;SDS011;66014;53.134;18.006;2023-03-01T03:37:57;26.10;;;11.20;;
77085;SDS011;66014;53.134;18.006;2023-03-01T03:40:33;28.20;;;10.90;;
77085;SDS011;66014;53.134;18.006;2023-03-01T03:43:00;23.20;;;9.60;;
77085;SDS011;66014;53.134;18.006;2023-03-01T03:45:28;31.00;;;14.30;;
77085;SDS011;66014;53.134;18.006;2023-03-01T03:47:55;28.60;;;11.50;;
77085;SDS011;66014;53.134;18.006;2023-03-01T03:50:22;28.70;;;12.70;;
77085;SDS011;66014;53.134;18.006;2023-03-01T03:52:48;31.50;;;11.70;;
77085;SDS011;66014;53.134;18.006;2023-03-01T03:55:15;44.10;;;20.00;;
77085;SDS011;66014;53.134;18.006;2023-03-01T03:57:46;65.30;;;31.00;;
77085;SDS011;66014;53.134;18.006;2023-03-01T04:00:18;45.40;;;21.60;;
77085;SDS011;66014;53.134;18.006;2023-03-01T04:02:47;99.00;;;40.20;;
77085;SDS011;66014;53.134;18.006;2023-03-01T04:05:15;74.90;;;29.50;;
77085;SDS011;66014;53.134;18.006;2023-03-01T04:07:45;88.90;;;42.40;;
77085;SDS011;66014;53.134;18.006;2023-03-01T04:10:15;68.40;;;26.80;;
77085;SDS011;66014;53.134;18.006;2023-03-01T04:12:43;45.80;;;19.00;;
77085;SDS011;66014;53.134;18.006;2023-03-01T04:15:11;39.60;;;17.30;;
77085;SDS011;66014;53.134;18.006;2023-03-01T04:17:44;35.30;;;15.00;;
77085;SDS011;66014;53.134;18.006;2023-03-01T04:20:14;46.40;;;18.70;;
77085;SDS011;66014;53.134;18.006;2023-03-01T04:23:07;36.60;;;15.40;;
77085;SDS011;66014;53.134;18.006;2023-03-01T04:28:20;32.70;;;14.00;;
77085;SDS011;66014;53.134;18.006;2023-03-01T04:30:54;37.10;;;16.10;;
77085;SDS011;66014;53.134;18.006;2023-03-01T04:33:23;37.20;;;15.10;;
77085;SDS011;66014;53.134;18.006;2023-03-01T04:36:07;33.90;;;14.60;;
77085;SDS011;66014;53.134;18.006;2023-03-01T04:38:35;25.50;;;11.50;;
77085;SDS011;66014;53.134;18.006;2023-03-01T04:41:06;27.50;;;12.20;;
77085;SDS011;66014;53.134;18.006;2023-03-01T04:43:38;34.50;;;16.20;;
77085;SDS011;66014;53.134;18.006;2023-03-01T04:46:05;28.50;;;12.70;;
77085;SDS011;66014;53.134;18.006;2023-03-01T04:48:54;35.00;;;15.70;;
77085;SDS011;66014;53.134;18.006;2023-03-01T04:51:27;35.30;;;14.40;;
77085;SDS011;66014;53.134;18.006;2023-03-01T04:54:02;38.40;;;14.60;;
77085;SDS011;66014;53.134;18.006;2023-03-01T04:56:29;34.50;;;14.50;;
77085;SDS011;66014;53.134;18.006;2023-03-01T05:02:37;25.50;;;11.00;;
77085;SDS011;66014;53.134;18.006;2023-03-01T05:05:40;30.10;;;13.60;;
77085;SDS011;66014;53.134;18.006;2023-03-01T05:08:21;31.80;;;13.50;;
77085;SDS011;66014;53.134;18.006;2023-03-01T05:10:49;21.30;;;9.10;;
77085;SDS011;66014;53.134;18.006;2023-03-01T05:13:18;36.30;;;15.70;;
77085;SDS011;66014;53.134;18.006;2023-03-01T05:15:54;28.50;;;11.70;;
77085;SDS011;66014;53.134;18.006;2023-03-01T05:18:22;33.30;;;11.70;;
77085;SDS011;66014;53.134;18.006;2023-03-01T05:20:53;26.30;;;10.60;;
77085;SDS011;66014;53.134;18.006;2023-03-01T05:23:22;22.00;;;9.50;;
77085;SDS011;66014;53.134;18.006;2023-03-01T05:25:49;26.40;;;11.40;;
77085;SDS011;66014;53.134;18.006;2023-03-01T05:28:19;17.90;;;8.70;;
77085;SDS011;66014;53.134;18.006;2023-03-01T05:30:46;24.90;;;9.50;;
77085;SDS011;66014;53.134;18.006;2023-03-01T05:33:13;23.40;;;11.00;;
77085;SDS011;66014;53.134;18.006;2023-03-01T05:35:40;29.60;;;11.80;;
77085;SDS011;66014;53.134;18.006;2023-03-01T05:38:11;22.40;;;9.60;;
77085;SDS011;66014;53.134;18.006;2023-03-01T05:40:42;33.50;;;13.50;;
77085;SDS011;66014;53.134;18.006;2023-03-01T05:43:10;38.80;;;15.30;;
77085;SDS011;66014;53.134;18.006;2023-03-01T05:45:38;41.60;;;17.20;;
77085;SDS011;66014;53.134;18.006;2023-03-01T05:48:06;39.50;;;16.70;;
77085;SDS011;66014;53.134;18.006;2023-03-01T05:50:37;38.00;;;16.80;;
77085;SDS011;66014;53.134;18.006;2023-03-01T05:53:06;40.20;;;17.30;;
77085;SDS011;66014;53.134;18.006;2023-03-01T05:55:36;51.00;;;19.40;;
77085;SDS011;66014;53.134;18.006;2023-03-01T05:58:04;45.50;;;18.10;;
77085;SDS011;66014;53.134;18.006;2023-03-01T06:00:32;43.70;;;18.00;;
77085;SDS011;66014;53.134;18.006;2023-03-01T06:03:00;47.00;;;18.80;;
77085;SDS011;66014;53.134;18.006;2023-03-01T06:05:27;39.90;;;18.70;;
77085;SDS011;66014;53.134;18.006;2023-03-01T06:07:54;39.90;;;16.20;;
77085;SDS011;66014;53.134;18.006;2023-03-01T06:10:27;42.90;;;17.70;;
77085;SDS011;66014;53.134;18.006;2023-03-01T06:12:59;39.30;;;15.00;;
77085;SDS011;66014;53.134;18.006;2023-03-01T06:15:26;39.50;;;15.70;;
77085;SDS011;66014;53.134;18.006;2023-03-01T06:17:54;39.70;;;18.10;;
77085;SDS011;66014;53.134;18.006;2023-03-01T06:20:23;46.30;;;19.10;;
77085;SDS011;66014;53.134;18.006;2023-03-01T06:22:51;52.00;;;20.30;;
77085;SDS011;66014;53.134;18.006;2023-03-01T06:25:19;55.90;;;21.10;;
77085;SDS011;66014;53.134;18.006;2023-03-01T06:27:48;56.90;;;21.30;;
77085;SDS011;66014;53.134;18.006;2023-03-01T06:30:16;40.90;;;16.40;;
77085;SDS011;66014;53.134;18.006;2023-03-01T06:32:44;50.20;;;19.40;;
77085;SDS011;66014;53.134;18.006;2023-03-01T06:35:12;51.30;;;20.50;;
77085;SDS011;66014;53.134;18.006;2023-03-01T06:37:40;45.10;;;19.90;;
77085;SDS011;66014;53.134;18.006;2023-03-01T06:40:10;39.50;;;15.10;;
77085;SDS011;66014;53.134;18.006;2023-03-01T06:42:38;33.60;;;14.60;;
77085;SDS011;66014;53.134;18.006;2023-03-01T06:45:07;37.70;;;14.00;;
77085;SDS011;66014;53.134;18.006;2023-03-01T06:47:35;37.90;;;14.30;;
77085;SDS011;66014;53.134;18.006;2023-03-01T06:50:04;34.80;;;14.70;;
77085;SDS011;66014;53.134;18.006;2023-03-01T06:52:32;29.40;;;13.40;;
77085;SDS011;66014;53.134;18.006;2023-03-01T06:54:59;25.70;;;10.60;;
77085;SDS011;66014;53.134;18.006;2023-03-01T06:57:26;23.10;;;10.00;;
77085;SDS011;66014;53.134;18.006;2023-03-01T06:59:53;43.50;;;17.50;;
77085;SDS011;66014;53.134;18.006;2023-03-01T07:02:20;27.50;;;12.60;;
77085;SDS011;66014;53.134;18.006;2023-03-01T07:04:51;29.30;;;13.00;;
77085;SDS011;66014;53.134;18.006;2023-03-01T07:07:18;37.50;;;15.20;;
77085;SDS011;66014;53.134;18.006;2023-03-01T07:09:45;31.00;;;12.20;;
77085;SDS011;66014;53.134;18.006;2023-03-01T07:12:14;36.00;;;14.80;;
77085;SDS011;66014;53.134;18.006;2023-03-01T07:14:43;29.80;;;13.20;;
77085;SDS011;66014;53.134;18.006;2023-03-01T07:17:11;43.20;;;18.30;;
77085;SDS011;66014;53.134;18.006;2023-03-01T07:19:38;44.40;;;21.50;;
77085;SDS011;66014;53.134;18.006;2023-03-01T07:22:05;28.60;;;14.20;;
77085;SDS011;66014;53.134;18.006;2023-03-01T07:24:34;40.00;;;21.50;;
77085;SDS011;66014;53.134;18.006;2023-03-01T07:27:01;39.80;;;18.50;;
77085;SDS011;66014;53.134;18.006;2023-03-01T07:29:27;54.70;;;21.90;;
77085;SDS011;66014;53.134;18.006;2023-03-01T07:31:55;59.90;;;23.40;;
77085;SDS011;66014;53.134;18.006;2023-03-01T07:34:21;38.70;;;18.20;;
77085;SDS011;66014;53.134;18.006;2023-03-01T07:36:53;33.10;;;16.70;;
77085;SDS011;66014;53.134;18.006;2023-03-01T07:39:20;33.20;;;16.80;;
77085;SDS011;66014;53.134;18.006;2023-03-01T07:41:46;41.20;;;20.00;;
77085;SDS011;66014;53.134;18.006;2023-03-01T07:44:13;41.50;;;20.40;;
77085;SDS011;66014;53.134;18.006;2023-03-01T07:46:43;38.00;;;17.90;;
77085;SDS011;66014;53.134;18.006;2023-03-01T07:49:11;39.50;;;18.90;;
77085;SDS011;66014;53.134;18.006;2023-03-01T07:51:47;33.60;;;13.80;;
77085;SDS011;66014;53.134;18.006;2023-03-01T07:54:31;36.60;;;14.90;;
77085;SDS011;66014;53.134;18.006;2023-03-01T07:57:18;28.70;;;13.30;;
77085;SDS011;66014;53.134;18.006;2023-03-01T07:59:55;31.80;;;13.90;;
77085;SDS011;66014;53.134;18.006;2023-03-01T08:05:31;24.50;;;11.70;;
77085;SDS011;66014;53.134;18.006;2023-03-01T08:07:58;26.90;;;12.00;;
77085;SDS011;66014;53.134;18.006;2023-03-01T08:10:26;32.10;;;14.10;;
77085;SDS011;66014;53.134;18.006;2023-03-01T08:12:55;33.10;;;14.00;;
77085;SDS011;66014;53.134;18.006;2023-03-01T08:15:24;24.70;;;11.20;;
77085;SDS011;66014;53.134;18.006;2023-03-01T08:18:00;26.10;;;12.70;;
77085;SDS011;66014;53.134;18.006;2023-03-01T08:20:32;30.40;;;14.60;;
77085;SDS011;66014;53.134;18.006;2023-03-01T08:22:59;22.90;;;11.50;;
77085;SDS011;66014;53.134;18.006;2023-03-01T08:25:26;24.10;;;12.40;;
77085;SDS011;66014;53.134;18.006;2023-03-01T08:27:53;26.40;;;12.70;;
77085;SDS011;66014;53.134;18.006;2023-03-01T08:30:19;30.00;;;15.80;;
77085;SDS011;66014;53.134;18.006;2023-03-01T08:32:46;33.90;;;16.20;;
77085;SDS011;66014;53.134;18.006;2023-03-01T08:35:22;36.70;;;17.40;;
77085;SDS011;66014;53.134;18.006;2023-03-01T08:37:57;26.70;;;13.40;;
77085;SDS011;66014;53.134;18.006;2023-03-01T08:40:23;30.80;;;13.00;;
77085;SDS011;66014;53.134;18.006;2023-03-01T08:42:50;31.60;;;15.50;;
77085;SDS011;66014;53.134;18.006;2023-03-01T08:45:16;33.30;;;15.70;;
77085;SDS011;66014;53.134;18.006;2023-03-01T08:47:44;31.00;;;15.30;;
77085;SDS011;66014;53.134;18.006;2023-03-01T08:50:11;32.90;;;16.40;;
77085;SDS011;66014;53.134;18.006;2023-03-01T08:52:37;33.40;;;15.30;;
77085;SDS011;66014;53.134;18.006;2023-03-01T08:55:04;33.90;;;15.50;;
77085;SDS011;66014;53.134;18.006;2023-03-01T08:57:31;43.90;;;17.90;;
77085;SDS011;66014;53.134;18.006;2023-03-01T08:59:58;54.00;;;26.30;;
77085;SDS011;66014;53.134;18.006;2023-03-01T09:02:24;51.30;;;24.70;;
77085;SDS011;66014;53.134;18.006;2023-03-01T09:04:51;45.40;;;23.80;;
77085;SDS011;66014;53.134;18.006;2023-03-01T09:07:17;73.00;;;35.30;;
77085;SDS011;66014;53.134;18.006;2023-03-01T09:09:44;46.10;;;19.30;;
77085;SDS011;66014;53.134;18.006;2023-03-01T09:12:10;30.50;;;17.90;;
77085;SDS011;66014;53.134;18.006;2023-03-01T09:14:57;35.80;;;18.90;;
77085;SDS011;66014;53.134;18.006;2023-03-01T09:17:28;37.10;;;20.00;;
77085;SDS011;66014;53.134;18.006;2023-03-01T09:19:56;43.20;;;23.60;;
77085;SDS011;66014;53.134;18.006;2023-03-01T09:22:22;36.60;;;18.10;;
77085;SDS011;66014;53.134;18.006;2023-03-01T09:24:49;39.10;;;19.60;;
77085;SDS011;66014;53.134;18.006;2023-03-01T09:27:15;34.80;;;18.40;;
77085;SDS011;66014;53.134;18.006;2023-03-01T09:29:44;28.40;;;15.70;;
77085;SDS011;66014;53.134;18.006;2023-03-01T09:32:11;26.80;;;16.40;;
77085;SDS011;66014;53.134;18.006;2023-03-01T09:34:41;27.50;;;14.90;;
77085;SDS011;66014;53.134;18.006;2023-03-01T09:37:27;29.70;;;17.40;;
77085;SDS011;66014;53.134;18.006;2023-03-01T09:39:59;30.10;;;14.50;;
77085;SDS011;66014;53.134;18.006;2023-03-01T09:42:27;31.50;;;15.40;;
77085;SDS011;66014;53.134;18.006;2023-03-01T09:44:58;34.90;;;19.00;;
77085;SDS011;66014;53.134;18.006;2023-03-01T09:47:35;32.30;;;16.90;;
77085;SDS011;66014;53.134;18.006;2023-03-01T09:50:09;31.70;;;16.30;;
77085;SDS011;66014;53.134;18.006;2023-03-01T09:53:01;36.90;;;16.40;;
77085;SDS011;66014;53.134;18.006;2023-03-01T09:55:40;29.20;;;14.90;;
77085;SDS011;66014;53.134;18.006;2023-03-01T10:00:51;26.50;;;14.00;;
77085;SDS011;66014;53.134;18.006;2023-03-01T10:03:26;22.30;;;12.00;;
77085;SDS011;66014;53.134;18.006;2023-03-01T10:06:24;22.00;;;11.20;;
77085;SDS011;66014;53.134;18.006;2023-03-01T10:09:03;19.90;;;10.50;;
77085;SDS011;66014;53.134;18.006;2023-03-01T10:11:38;21.80;;;10.70;;
77085;SDS011;66014;53.134;18.006;2023-03-01T10:17:00;25.10;;;12.60;;
77085;SDS011;66014;53.134;18.006;2023-03-01T10:22:04;22.00;;;12.10;;
77085;SDS011;66014;53.134;18.006;2023-03-01T10:24:39;18.20;;;10.10;;
77085;SDS011;66014;53.134;18.006;2023-03-01T10:27:07;16.60;;;9.20;;
77085;SDS011;66014;53.134;18.006;2023-03-01T10:32:27;22.90;;;12.40;;
77085;SDS011;66014;53.134;18.006;2023-03-01T10:34:57;22.80;;;11.50;;
77085;SDS011;66014;53.134;18.006;2023-03-01T10:37:23;17.30;;;9.80;;
77085;SDS011;66014;53.134;18.006;2023-03-01T10:42:37;12.30;;;7.20;;
77085;SDS011;66014;53.134;18.006;2023-03-01T10:45:17;17.00;;;8.90;;
77085;SDS011;66014;53.134;18.006;2023-03-01T10:48:15;15.40;;;7.70;;
77085;SDS011;66014;53.134;18.006;2023-03-01T10:56:06;19.80;;;10.50;;
77085;SDS011;66014;53.134;18.006;2023-03-01T10:58:36;20.80;;;10.10;;
77085;SDS011;66014;53.134;18.006;2023-03-01T11:01:49;20.20;;;10.60;;
77085;SDS011;66014;53.134;18.006;2023-03-01T11:06:34;17.80;;;9.20;;
77085;SDS011;66014;53.134;18.006;2023-03-01T11:09:15;20.50;;;9.80;;
77085;SDS011;66014;53.134;18.006;2023-03-01T11:11:53;17.40;;;8.40;;
77085;SDS011;66014;53.134;18.006;2023-03-01T11:14:22;36.40;;;19.70;;
77085;SDS011;66014;53.134;18.006;2023-03-01T11:19:31;19.10;;;8.80;;
77085;SDS011;66014;53.134;18.006;2023-03-01T11:22:03;19.90;;;9.50;;
77085;SDS011;66014;53.134;18.006;2023-03-01T11:24:47;29.20;;;14.00;;
77085;SDS011;66014;53.134;18.006;2023-03-01T11:27:33;19.80;;;11.10;;
77085;SDS011;66014;53.134;18.006;2023-03-01T11:32:40;14.00;;;7.30;;
77085;SDS011;66014;53.134;18.006;2023-03-01T11:35:27;18.50;;;9.70;;
77085;SDS011;66014;53.134;18.006;2023-03-01T11:41:18;19.40;;;10.20;;
77085;SDS011;66014;53.134;18.006;2023-03-01T12:12:16;17.30;;;8.10;;
77085;SDS011;66014;53.134;18.006;2023-03-01T12:21:55;18.10;;;10.00;;
77085;SDS011;66014;53.134;18.006;2023-03-01T12:33:13;23.50;;;10.80;;
77085;SDS011;66014;53.134;18.006;2023-03-01T12:47:05;14.60;;;8.00;;
77085;SDS011;66014;53.134;18.006;2023-03-01T12:49:44;19.20;;;10.90;;
77085;SDS011;66014;53.134;18.006;2023-03-01T12:52:27;25.30;;;11.90;;
77085;SDS011;66014;53.134;18.006;2023-03-01T12:55:06;15.90;;;9.60;;
77085;SDS011;66014;53.134;18.006;2023-03-01T12:57:56;19.20;;;9.30;;
77085;SDS011;66014;53.134;18.006;2023-03-01T13:01:00;20.20;;;9.60;;
77085;SDS011;66014;53.134;18.006;2023-03-01T13:03:59;18.30;;;9.80;;
77085;SDS011;66014;53.134;18.006;2023-03-01T13:06:43;16.10;;;8.50;;
77085;SDS011;66014;53.134;18.006;2023-03-01T13:18:01;16.30;;;9.60;;
77085;SDS011;66014;53.134;18.006;2023-03-01T13:20:34;20.30;;;9.60;;
77085;SDS011;66014;53.134;18.006;2023-03-01T13:31:09;18.00;;;9.40;;
77085;SDS011;66014;53.134;18.006;2023-03-01T13:33:48;24.40;;;13.80;;
77085;SDS011;66014;53.134;18.006;2023-03-01T13:41:55;16.10;;;7.60;;
77085;SDS011;66014;53.134;18.006;2023-03-01T13:45:49;22.10;;;10.20;;
77085;SDS011;66014;53.134;18.006;2023-03-01T13:48:09;15.60;;;7.90;;
77085;SDS011;66014;53.134;18.006;2023-03-01T13:50:46;19.80;;;8.10;;
77085;SDS011;66014;53.134;18.006;2023-03-01T13:53:42;26.60;;;12.00;;
77085;SDS011;66014;53.134;18.006;2023-03-01T13:56:15;17.10;;;8.00;;
77085;SDS011;66014;53.134;18.006;2023-03-01T14:01:28;25.00;;;11.10;;
77085;SDS011;66014;53.134;18.006;2023-03-01T14:04:00;33.60;;;17.60;;
77085;SDS011;66014;53.134;18.006;2023-03-01T14:06:32;23.30;;;10.20;;
77085;SDS011;66014;53.134;18.006;2023-03-01T14:20:23;24.00;;;10.80;;
77085;SDS011;66014;53.134;18.006;2023-03-01T14:22:52;19.90;;;9.60;;
77085;SDS011;66014;53.134;18.006;2023-03-01T14:25:31;24.40;;;9.30;;
77085;SDS011;66014;53.134;18.006;2023-03-01T14:28:04;31.60;;;12.30;;
77085;SDS011;66014;53.134;18.006;2023-03-01T14:30:50;28.50;;;11.70;;
77085;SDS011;66014;53.134;18.006;2023-03-01T14:33:19;23.10;;;11.20;;
77085;SDS011;66014;53.134;18.006;2023-03-01T14:36:02;16.50;;;8.20;;
77085;SDS011;66014;53.134;18.006;2023-03-01T14:38:40;30.00;;;13.70;;
77085;SDS011;66014;53.134;18.006;2023-03-01T14:41:08;26.40;;;11.60;;
77085;SDS011;66014;53.134;18.006;2023-03-01T14:43:46;26.80;;;12.40;;
77085;SDS011;66014;53.134;18.006;2023-03-01T14:46:18;26.40;;;12.60;;
77085;SDS011;66014;53.134;18.006;2023-03-01T14:48:56;23.50;;;10.80;;
77085;SDS011;66014;53.134;18.006;2023-03-01T14:51:28;30.60;;;15.70;;
77085;SDS011;66014;53.134;18.006;2023-03-01T14:53:58;30.60;;;13.90;;
77085;SDS011;66014;53.134;18.006;2023-03-01T14:56:24;21.10;;;11.10;;
77085;SDS011;66014;53.134;18.006;2023-03-01T14:58:51;20.20;;;10.00;;
77085;SDS011;66014;53.134;18.006;2023-03-01T15:01:19;19.20;;;9.10;;
77085;SDS011;66014;53.134;18.006;2023-03-01T15:03:49;17.20;;;8.30;;
77085;SDS011;66014;53.134;18.006;2023-03-01T15:06:17;22.30;;;12.90;;
77085;SDS011;66014;53.134;18.006;2023-03-01T15:08:48;24.60;;;10.50;;
77085;SDS011;66014;53.134;18.006;2023-03-01T15:13:59;28.00;;;10.20;;
77085;SDS011;66014;53.134;18.006;2023-03-01T15:16:26;22.40;;;10.90;;
77085;SDS011;66014;53.134;18.006;2023-03-01T15:19:02;28.90;;;10.40;;
77085;SDS011;66014;53.134;18.006;2023-03-01T15:21:32;67.30;;;22.00;;
77085;SDS011;66014;53.134;18.006;2023-03-01T15:26:40;31.20;;;14.50;;
77085;SDS011;66014;53.134;18.006;2023-03-01T15:29:15;29.50;;;13.60;;
77085;SDS011;66014;53.134;18.006;2023-03-01T15:31:53;26.10;;;12.80;;
77085;SDS011;66014;53.134;18.006;2023-03-01T15:34:31;20.00;;;8.90;;
77085;SDS011;66014;53.134;18.006;2023-03-01T15:37:00;18.40;;;8.60;;
77085;SDS011;66014;53.134;18.006;2023-03-01T15:39:38;23.10;;;10.80;;
77085;SDS011;66014;53.134;18.006;2023-03-01T15:45:10;19.70;;;8.90;;
77085;SDS011;66014;53.134;18.006;2023-03-01T15:47:47;29.10;;;13.30;;
77085;SDS011;66014;53.134;18.006;2023-03-01T15:50:21;20.70;;;10.20;;
77085;SDS011;66014;53.134;18.006;2023-03-01T15:52:49;25.10;;;11.30;;
77085;SDS011;66014;53.134;18.006;2023-03-01T15:55:17;26.90;;;11.40;;
77085;SDS011;66014;53.134;18.006;2023-03-01T15:57:46;30.60;;;13.30;;
77085;SDS011;66014;53.134;18.006;2023-03-01T16:00:14;27.40;;;12.70;;
77085;SDS011;66014;53.134;18.006;2023-03-01T16:02:43;26.90;;;12.20;;
77085;SDS011;66014;53.134;18.006;2023-03-01T16:05:22;28.90;;;12.10;;
77085;SDS011;66014;53.134;18.006;2023-03-01T16:07:50;26.70;;;12.50;;
77085;SDS011;66014;53.134;18.006;2023-03-01T16:10:27;28.60;;;12.30;;
77085;SDS011;66014;53.134;18.006;2023-03-01T16:12:58;43.20;;;17.80;;
77085;SDS011;66014;53.134;18.006;2023-03-01T16:15:36;38.40;;;16.60;;
77085;SDS011;66014;53.134;18.006;2023-03-01T16:18:11;40.60;;;18.20;;
77085;SDS011;66014;53.134;18.006;2023-03-01T16:20:57;34.10;;;16.40;;
77085;SDS011;66014;53.134;18.006;2023-03-01T16:23:25;27.90;;;12.50;;
77085;SDS011;66014;53.134;18.006;2023-03-01T16:25:54;28.80;;;12.70;;
77085;SDS011;66014;53.134;18.006;2023-03-01T16:28:31;32.40;;;14.40;;
77085;SDS011;66014;53.134;18.006;2023-03-01T16:31:23;37.70;;;16.90;;
77085;SDS011;66014;53.134;18.006;2023-03-01T16:33:55;49.40;;;22.40;;
77085;SDS011;66014;53.134;18.006;2023-03-01T16:36:31;45.50;;;21.70;;
77085;SDS011;66014;53.134;18.006;2023-03-01T16:38:59;62.60;;;24.10;;
77085;SDS011;66014;53.134;18.006;2023-03-01T16:41:29;85.20;;;33.20;;
77085;SDS011;66014;53.134;18.006;2023-03-01T16:43:58;98.60;;;35.60;;
77085;SDS011;66014;53.134;18.006;2023-03-01T16:46:26;89.00;;;38.00;;
77085;SDS011;66014;53.134;18.006;2023-03-01T16:48:55;100.70;;;42.30;;
77085;SDS011;66014;53.134;18.006;2023-03-01T16:51:23;94.80;;;44.00;;
77085;SDS011;66014;53.134;18.006;2023-03-01T16:53:50;95.20;;;42.50;;
77085;SDS011;66014;53.134;18.006;2023-03-01T16:56:18;87.90;;;39.40;;
77085;SDS011;66014;53.134;18.006;2023-03-01T16:58:48;76.20;;;37.50;;
77085;SDS011;66014;53.134;18.006;2023-03-01T17:01:16;89.30;;;37.20;;
77085;SDS011;66014;53.134;18.006;2023-03-01T17:03:45;89.20;;;40.60;;
77085;SDS011;66014;53.134;18.006;2023-03-01T17:09:56;75.10;;;31.40;;